Moundville, Alabama
Current Conditions -  °F | °C
As of 11:53 AM on Monday 22 Dec 2014 (Local Time) from KTCL Reporting Station
Overcast Overcast  
Wind Chill: 55°   Ceiling: 1000
Heat Index: 55°   Visibility: 10mi
Dew Point: 52°   Wind: 6mph
Humidity: 89%   Direction: NA
Pressure: 29.84"   Gusts: NA
Location:  33°N, 87.63°W
Report Text: KTCL 221753Z VRB05KT 10SM OVC010 13/11 A2984 RMK AO2 SLP102 60004 T01280111 10128 20106 56024
Loading
Personal Weather Stations






























Interactive Weather Map New forecast layout! Learn more

10-Day Weather Forecast

Advertisements
Track Severe Weather on mobile